Etusivu
METAR-TAF:

METAR-TAF

Lentoasemat :

Ljungbyhed, Ruotsi

Leveyspiiri: 56-04N, Pituuspiiri: 013-12E, korkeus merenpinnasta: 43 m

Tämänhetkinen sää

Tämä raportti tehtiin 22 minuuttia sitten, kello 20.20 UTC
Tuuli 4 kn idästä
Lämpötila 16°C
Kosteus 94%
Ilmanpaine 1016 hPa
Näkyvyys 10 km tai enemmän

METAR: ESTL 152020Z AUTO 10004KT 9999 NCD 16/15 Q1016

Aika: 22:42 (20:42 UTC)

Sääennuste

Tämä raportti tehtiin 9 tuntia ja 28 minuuttia sitten, kello 11.14 UTC
Ennuste voimassa 15. päivästä klo 12 UTC - 15. päivään klo 15 UTC
Tuuli 8 kn lännestä
Näkyvyys 10 km tai enemmän
Hajanaisia pilviä 3000 ft:n korkeudessa

TAF: ESTL 151114Z 1512/1515 26008KT 9999 SCT030

Säähavainnot ja -ennusteet yli 4000 lentoasemalta (METAR- ja TAF-raportit).

Käytössä olevat sääasemat on merkitty karttaan keltaisilla ja punaisilla pisteillä.

Aseta hiiri pisteen päälle nähdäksesi sääaseman nimen.

Klikkaa sitten nähdäksesi säähavainnot ja -ennusteet.

Kartan vaihtaminen: klikkaa mustalla rastilla varustettuja vihreitä pisteitä, niin voit zoomata sisään; viivalla varustettua vihreää pistettä, niin voit zoomata ulos tai vihreitä nuolia, niin pääset viereisille kartoille.


METAR-TAF: